Terminal Aerodrome Forecast
Issued by NWS

Home | Current Version | Previous Version | Text Only | Print | Product List | Glossary On
Versions: 1 2 3 4 5 6 7 8 9 10 11 12
000
FTUS42 KTBW 242300
TAFLAL
TAF
KLAL 242336Z 2500/2524 04005KT P6SM FEW050
     FM250200 01004KT P6SM SKC
     FM251400 03007KT P6SM SKC
     FM251800 01008KT P6SM FEW040
      AMD NOT SKED 2503/2512=

USA.gov is the U.S. government's official web portal to all federal, state and local government web resources and services.